Time;durP1;ratioP1;P1;durP2;ratioP2;P2;SDS_P1;SDS_P2;PMS_P1;PMS_P2;Temp;Humidity;BMP_temperature;BMP_pressure;BME280_temperature;BME280_humidity;BME280_pressure;Samples;Min_cycle;Max_cycle;Signal;HPM_P1;HPM_P2
2022/04/18 00:00:22;;;;;;;30.77;14.40;;;5.90;99.90;;;;;;5011720;28;20018;-76
2022/04/18 00:02:47;;;;;;;25.63;14.50;;;5.90;99.90;;;;;;5011811;28;20025;-76
2022/04/18 00:05:13;;;;;;;30.10;14.13;;;5.80;99.90;;;;;;4991160;28;20030;-76
2022/04/18 00:07:39;;;;;;;32.50;15.87;;;5.70;99.90;;;;;;5011651;28;20022;-76
2022/04/18 00:10:05;;;;;;;34.93;17.00;;;5.70;99.90;;;;;;4993804;28;20037;-76
2022/04/18 00:12:31;;;;;;;36.03;15.63;;;5.70;99.90;;;;;;5011472;28;20034;-76
2022/04/18 00:14:57;;;;;;;42.20;20.50;;;5.80;99.90;;;;;;5011826;28;20486;-76
2022/04/18 00:17:23;;;;;;;39.50;18.93;;;5.90;99.90;;;;;;5011664;28;20026;-76
2022/04/18 00:19:49;;;;;;;39.00;19.17;;;6.10;99.90;;;;;;5011859;28;20026;-75
2022/04/18 00:22:14;;;;;;;39.87;19.10;;;6.20;99.90;;;;;;5011751;28;20458;-76
2022/04/18 00:24:40;;;;;;;40.50;19.60;;;6.30;99.90;;;;;;5011388;28;20461;-76
2022/04/18 00:27:06;;;;;;;45.60;21.20;;;6.30;99.90;;;;;;5011356;28;20526;-76
2022/04/18 00:29:32;;;;;;;38.13;19.52;;;6.30;99.90;;;;;;5011956;28;20029;-76
2022/04/18 00:31:58;;;;;;;40.17;20.50;;;6.30;99.90;;;;;;4993988;28;20425;-76
2022/04/18 00:34:23;;;;;;;46.97;24.27;;;6.30;99.90;;;;;;5011271;28;20089;-76
2022/04/18 00:36:49;;;;;;;48.47;23.83;;;6.50;99.90;;;;;;5005062;28;20466;-76
2022/04/18 00:39:15;;;;;;;49.93;25.30;;;6.50;99.90;;;;;;5010290;28;20117;-76
2022/04/18 00:41:41;;;;;;;44.22;24.13;;;6.60;99.90;;;;;;5009890;28;20018;-76
2022/04/18 00:44:07;;;;;;;45.63;23.47;;;6.60;99.90;;;;;;5011315;28;20021;-76
2022/04/18 00:46:32;;;;;;;48.00;23.10;;;6.60;99.90;;;;;;5011100;28;20474;-76
2022/04/18 00:48:58;;;;;;;44.97;23.40;;;6.50;99.90;;;;;;5011012;28;20028;-76
2022/04/18 00:51:26;;;;;;;41.63;22.60;;;6.50;99.90;;;;;;5011062;28;20014;-76
2022/04/18 00:53:53;;;;;;;44.92;23.23;;;6.50;99.90;;;;;;5010673;28;20079;-76
2022/04/18 00:56:22;;;;;;;51.70;26.15;;;6.40;99.90;;;;;;5010557;28;20022;-76
2022/04/18 00:58:49;;;;;;;46.75;23.77;;;6.30;99.90;;;;;;5011302;28;20022;-76
2022/04/18 01:01:16;;;;;;;43.15;23.92;;;6.30;99.90;;;;;;5010522;28;20045;-76
2022/04/18 01:03:43;;;;;;;48.17;23.90;;;6.30;99.90;;;;;;5010882;28;20029;-76
2022/04/18 01:06:10;;;;;;;43.93;22.73;;;6.30;99.90;;;;;;5000571;23;20049;-80
2022/04/18 01:08:36;;;;;;;46.95;23.45;;;6.20;99.90;;;;;;4958683;28;20415;-80
2022/04/18 01:11:05;;;;;;;46.05;24.25;;;6.30;99.90;;;;;;4971550;28;20199;-80
2022/04/18 01:13:38;;;;;;;41.10;22.63;;;6.30;99.90;;;;;;4971766;28;20042;-80
2022/04/18 01:16:04;;;;;;;47.38;24.40;;;6.20;99.90;;;;;;4972188;28;20035;-80
2022/04/18 01:18:30;;;;;;;42.15;22.98;;;6.10;99.90;;;;;;4971845;28;20027;-80
2022/04/18 01:20:55;;;;;;;44.85;23.67;;;6.10;99.90;;;;;;4953996;28;20630;-80
2022/04/18 01:23:21;;;;;;;51.77;27.17;;;6.00;99.90;;;;;;4971137;28;20031;-80
2022/04/18 01:31:32;;;;;;;61.63;28.80;;;6.10;99.90;;;;;;4965973;28;20074;-80
2022/04/18 01:33:58;;;;;;;54.50;25.73;;;6.10;99.90;;;;;;4971235;28;20122;-80
2022/04/18 01:36:25;;;;;;;54.50;26.67;;;6.20;99.90;;;;;;4968189;28;20023;-80
2022/04/18 01:38:51;;;;;;;55.13;26.88;;;6.20;99.90;;;;;;4971433;28;20502;-80
2022/04/18 01:41:18;;;;;;;58.63;28.60;;;6.30;99.90;;;;;;4954428;28;20106;-81
2022/04/18 01:43:43;;;;;;;85.60;35.93;;;6.40;99.90;;;;;;4971550;28;20033;-80
2022/04/18 01:46:09;;;;;;;88.53;35.42;;;6.80;99.90;;;;;;4954195;28;20109;-80
2022/04/18 01:48:35;;;;;;;80.93;32.55;;;7.20;99.90;;;;;;4971724;28;20452;-80
2022/04/18 01:51:01;;;;;;;85.22;35.25;;;7.40;99.90;;;;;;4971071;28;20030;-80
2022/04/18 01:53:28;;;;;;;83.63;33.95;;;7.70;99.90;;;;;;4971331;28;20034;-80
2022/04/18 01:55:54;;;;;;;79.88;32.63;;;7.80;99.90;;;;;;4971536;28;20025;-81
2022/04/18 01:58:19;;;;;;;95.75;33.90;;;7.90;99.90;;;;;;4971105;28;20106;-81
2022/04/18 02:00:45;;;;;;;85.90;32.17;;;8.10;99.90;;;;;;4971421;28;20069;-80
2022/04/18 02:03:11;;;;;;;82.07;30.40;;;8.20;99.90;;;;;;4954645;28;20027;-81
2022/04/18 02:05:37;;;;;;;80.30;29.50;;;8.20;99.90;;;;;;4965488;23;20110;-76
2022/04/18 02:08:03;;;;;;;86.13;28.40;;;8.30;99.90;;;;;;4971131;28;20062;-75
2022/04/18 02:10:29;;;;;;;84.07;29.15;;;8.60;99.90;;;;;;4971474;28;20062;-75
2022/04/18 02:12:55;;;;;;;81.30;28.23;;;8.60;99.90;;;;;;4971173;28;20031;-76
2022/04/18 02:15:21;;;;;;;67.15;27.98;;;8.70;99.90;;;;;;4971191;28;20085;-75
2022/04/18 02:17:47;;;;;;;72.60;26.75;;;8.80;99.90;;;;;;4971633;28;20101;-75
2022/04/18 02:20:12;;;;;;;67.18;26.30;;;8.80;99.90;;;;;;4970976;28;20106;-75
2022/04/18 02:22:38;;;;;;;68.82;26.33;;;8.80;99.90;;;;;;4971062;28;20081;-75
2022/04/18 02:25:04;;;;;;;74.18;23.98;;;8.80;99.90;;;;;;4971544;28;20034;-75
2022/04/18 02:27:30;;;;;;;69.25;25.10;;;8.80;99.90;;;;;;4971016;28;20177;-75
2022/04/18 02:29:56;;;;;;;78.30;24.75;;;8.80;99.90;;;;;;4970981;28;20551;-75
2022/04/18 02:35:06;;;;;;;64.40;23.92;;;8.80;99.90;;;;;;4971975;28;20094;-75
2022/04/18 02:37:32;;;;;;;63.92;23.85;;;8.80;99.90;;;;;;4973962;28;20102;-75
2022/04/18 02:39:59;;;;;;;75.55;27.52;;;8.70;99.90;;;;;;4974537;28;20121;-76
2022/04/18 02:42:25;;;;;;;71.88;25.17;;;8.60;99.90;;;;;;4975018;28;20078;-75
2022/04/18 02:44:51;;;;;;;82.47;28.00;;;8.60;99.90;;;;;;4957412;28;20027;-75
2022/04/18 02:47:17;;;;;;;69.22;26.08;;;8.50;99.90;;;;;;4974478;28;20023;-75
2022/04/18 02:49:43;;;;;;;66.10;24.33;;;8.40;99.90;;;;;;4974154;28;20030;-76
2022/04/18 02:52:08;;;;;;;71.15;27.15;;;8.20;99.90;;;;;;4974210;28;20108;-75
2022/04/18 02:54:34;;;;;;;61.08;24.52;;;8.10;99.90;;;;;;4974112;28;20480;-75
2022/04/18 02:57:00;;;;;;;60.40;23.33;;;7.90;99.90;;;;;;4974290;28;20165;-75
2022/04/18 02:59:25;;;;;;;72.95;28.02;;;7.80;99.90;;;;;;4961066;28;20095;-75
2022/04/18 03:01:51;;;;;;;63.85;24.92;;;7.70;99.90;;;;;;4956634;28;20031;-76
2022/04/18 03:04:17;;;;;;;71.25;26.75;;;7.70;99.90;;;;;;4957097;28;20038;-76
2022/04/18 03:06:43;;;;;;;62.40;24.80;;;7.60;99.90;;;;;;4986762;23;20516;-81
2022/04/18 03:09:08;;;;;;;57.13;23.90;;;7.50;99.90;;;;;;4973880;28;20050;-81
2022/04/18 03:11:34;;;;;;;56.22;23.73;;;7.30;99.90;;;;;;4956278;28;20030;-81
2022/04/18 03:14:00;;;;;;;54.22;22.75;;;7.20;99.90;;;;;;4974002;28;20064;-82
2022/04/18 03:16:25;;;;;;;63.05;24.35;;;7.20;99.90;;;;;;4973501;28;20102;-81
2022/04/18 03:18:51;;;;;;;55.13;24.40;;;7.20;99.90;;;;;;4973680;28;20038;-81
2022/04/18 03:21:17;;;;;;;55.97;22.75;;;7.20;99.90;;;;;;4973794;28;20109;-82
2022/04/18 03:23:45;;;;;;;57.75;23.23;;;7.10;99.90;;;;;;4973441;28;20081;-81
2022/04/18 03:26:12;;;;;;;56.05;22.70;;;7.00;99.90;;;;;;4956183;28;20030;-81
2022/04/18 03:28:37;;;;;;;60.53;24.83;;;7.00;99.90;;;;;;4973683;28;20053;-81
2022/04/18 03:31:03;;;;;;;55.75;23.75;;;7.00;99.90;;;;;;4973436;28;20034;-81
2022/04/18 03:33:29;;;;;;;53.40;21.95;;;6.90;99.90;;;;;;4973163;28;20035;-81
2022/04/18 03:41:23;;;;;;;52.28;21.98;;;6.80;99.90;;;;;;4973813;28;20448;-81
2022/04/18 03:43:50;;;;;;;63.10;24.38;;;6.80;99.90;;;;;;4973435;28;20106;-81
2022/04/18 03:46:16;;;;;;;56.47;23.08;;;6.80;99.90;;;;;;4972326;28;20372;-81
2022/04/18 03:48:41;;;;;;;61.00;24.60;;;6.70;99.90;;;;;;4973460;28;20023;-81
2022/04/18 03:51:07;;;;;;;58.53;23.38;;;6.60;99.90;;;;;;4973043;28;20023;-81
2022/04/18 03:53:33;;;;;;;56.63;22.00;;;6.60;99.90;;;;;;4972980;28;20496;-81
2022/04/18 03:55:58;;;;;;;67.88;24.23;;;6.50;99.90;;;;;;4973357;28;20097;-81
2022/04/18 03:58:24;;;;;;;62.85;24.08;;;6.50;99.90;;;;;;4972896;28;20534;-81
2022/04/18 04:00:49;;;;;;;61.15;23.08;;;6.40;99.90;;;;;;4973167;28;20018;-82
2022/04/18 04:03:15;;;;;;;61.67;23.10;;;6.30;99.90;;;;;;4955707;28;20030;-81
2022/04/18 04:05:41;;;;;;;59.17;23.00;;;6.20;99.90;;;;;;4984613;23;20109;-75
2022/04/18 04:08:07;;;;;;;53.75;22.45;;;6.20;99.90;;;;;;4972227;28;20035;-75
2022/04/18 04:10:33;;;;;;;58.58;22.05;;;6.20;99.90;;;;;;4973091;28;20110;-75
2022/04/18 04:12:59;;;;;;;64.50;24.58;;;6.20;99.90;;;;;;4972809;28;20109;-76
2022/04/18 04:15:25;;;;;;;64.93;24.40;;;6.30;99.90;;;;;;4972592;28;20035;-76
2022/04/18 04:17:51;;;;;;;53.63;21.92;;;6.20;99.90;;;;;;4972685;28;20478;-75
2022/04/18 04:20:17;;;;;;;65.07;25.10;;;6.20;99.90;;;;;;4972602;28;20105;-75
2022/04/18 04:22:48;;;;;;;58.90;21.77;;;6.20;99.90;;;;;;4972166;28;20400;-75
2022/04/18 04:25:15;;;;;;;58.28;23.40;;;6.10;99.90;;;;;;4972407;28;20089;-75
2022/04/18 04:27:41;;;;;;;56.28;23.48;;;6.10;99.90;;;;;;4972880;28;20026;-75
2022/04/18 04:30:07;;;;;;;77.80;24.90;;;6.10;99.90;;;;;;4972062;28;20030;-76
2022/04/18 04:32:33;;;;;;;71.97;24.13;;;6.20;99.90;;;;;;4971769;28;20392;-75
2022/04/18 04:34:59;;;;;;;58.58;22.45;;;6.10;99.90;;;;;;4973074;28;20030;-75
2022/04/18 04:37:24;;;;;;;67.90;24.17;;;6.00;99.90;;;;;;4970025;28;20019;-75
2022/04/18 04:39:50;;;;;;;60.85;22.00;;;5.90;99.90;;;;;;4972138;28;20023;-75
2022/04/18 04:42:17;;;;;;;60.27;23.30;;;5.90;99.90;;;;;;4972663;28;20031;-75
2022/04/18 04:44:43;;;;;;;67.33;25.07;;;5.80;99.90;;;;;;4972234;28;20066;-75
2022/04/18 04:47:09;;;;;;;75.78;24.42;;;5.90;99.90;;;;;;4972044;28;20031;-75
2022/04/18 04:49:35;;;;;;;56.77;21.60;;;5.90;99.90;;;;;;4972253;28;20017;-75
2022/04/18 04:52:00;;;;;;;59.97;22.13;;;5.80;99.90;;;;;;4971486;28;20023;-75
2022/04/18 04:54:26;;;;;;;62.73;23.40;;;5.80;99.90;;;;;;4971672;28;20495;-75
2022/04/18 04:56:52;;;;;;;68.77;24.03;;;5.70;99.90;;;;;;4972174;28;20113;-75
2022/04/18 04:59:17;;;;;;;58.33;21.80;;;5.70;99.90;;;;;;4971799;28;20033;-75
2022/04/18 05:01:43;;;;;;;83.35;26.50;;;5.80;99.90;;;;;;4971607;28;20450;-75
2022/04/18 05:04:09;;;;;;;85.40;26.33;;;5.70;99.90;;;;;;4972118;28;20407;-76
2022/04/18 05:06:34;;;;;;;69.07;24.75;;;5.70;99.90;;;;;;4996090;23;20038;-80
2022/04/18 05:09:00;;;;;;;66.13;26.33;;;5.70;99.90;;;;;;4991173;28;20027;-81
2022/04/18 05:11:26;;;;;;;69.55;24.98;;;5.80;99.90;;;;;;4991566;28;20027;-81
2022/04/18 05:13:52;;;;;;;65.10;24.17;;;5.90;99.90;;;;;;4991101;28;20041;-80
2022/04/18 05:16:18;;;;;;;70.77;25.50;;;6.00;99.90;;;;;;4973441;28;20329;-80
2022/04/18 05:18:43;;;;;;;73.33;25.57;;;6.00;99.90;;;;;;4990872;28;20033;-80
2022/04/18 05:21:10;;;;;;;66.40;25.03;;;6.10;99.90;;;;;;4991290;28;20483;-81
2022/04/18 05:23:36;;;;;;;64.67;23.27;;;6.10;99.90;;;;;;4990997;28;20476;-80
2022/04/18 05:26:02;;;;;;;64.10;26.07;;;6.10;99.90;;;;;;4973416;28;20034;-80
2022/04/18 05:28:28;;;;;;;68.30;24.85;;;6.10;99.90;;;;;;4973521;28;20126;-80
2022/04/18 05:30:54;;;;;;;63.73;24.80;;;6.10;99.90;;;;;;4973329;28;20038;-81
2022/04/18 05:33:21;;;;;;;70.82;23.90;;;6.10;99.90;;;;;;4990776;28;20069;-80
2022/04/18 05:35:47;;;;;;;66.73;25.90;;;6.20;99.90;;;;;;4967900;28;20023;-81
2022/04/18 05:38:16;;;;;;;60.67;23.70;;;6.20;99.90;;;;;;4989404;28;20022;-81
2022/04/18 05:40:42;;;;;;;65.47;25.60;;;6.20;99.90;;;;;;4990918;28;20033;-81
2022/04/18 05:43:10;;;;;;;58.50;25.58;;;6.30;99.90;;;;;;4991113;28;20034;-81
2022/04/18 05:45:40;;;;;;;61.35;26.25;;;6.40;99.90;;;;;;4972793;28;20022;-80
2022/04/18 05:48:06;;;;;;;58.92;26.10;;;6.40;99.90;;;;;;4990561;28;20035;-80
2022/04/18 05:50:31;;;;;;;65.78;27.83;;;6.40;99.90;;;;;;4990866;28;20026;-80
2022/04/18 05:52:57;;;;;;;61.50;24.67;;;6.40;99.90;;;;;;4991343;28;20026;-80
2022/04/18 05:55:23;;;;;;;62.30;25.65;;;6.50;99.90;;;;;;4990383;28;20034;-81
2022/04/18 05:57:50;;;;;;;58.45;24.13;;;6.50;99.90;;;;;;4972859;28;20072;-81
2022/04/18 06:00:16;;;;;;;53.60;24.30;;;6.60;99.90;;;;;;4989239;28;20022;-81
2022/04/18 06:02:42;;;;;;;56.58;22.88;;;6.80;99.90;;;;;;4983680;28;20430;-80
2022/04/18 06:05:08;;;;;;;54.70;22.70;;;6.90;99.90;;;;;;5003375;23;20056;-75
2022/04/18 06:07:36;;;;;;;54.80;24.80;;;7.00;99.90;;;;;;4963221;28;20078;-76
2022/04/18 06:10:03;;;;;;;55.63;23.45;;;7.20;99.90;;;;;;4972602;28;20034;-76
2022/04/18 06:12:29;;;;;;;55.05;23.02;;;7.30;99.90;;;;;;4957213;28;20479;-75
2022/04/18 06:14:55;;;;;;;58.42;22.95;;;7.50;99.90;;;;;;4975291;28;20035;-76
2022/04/18 06:17:21;;;;;;;62.03;23.70;;;7.70;99.90;;;;;;4974831;28;20387;-75
2022/04/18 06:19:46;;;;;;;57.55;24.58;;;7.80;99.90;;;;;;4974833;28;20027;-75
2022/04/18 06:22:12;;;;;;;47.92;20.63;;;7.90;99.90;;;;;;4974659;28;20558;-75
2022/04/18 06:24:38;;;;;;;50.75;20.77;;;8.10;99.90;;;;;;4974444;28;20098;-75
2022/04/18 06:27:04;;;;;;;46.13;20.08;;;8.20;99.90;;;;;;4974126;28;20030;-75
2022/04/18 06:29:30;;;;;;;40.25;19.65;;;8.30;99.90;;;;;;4974965;28;20023;-75
2022/04/18 06:31:55;;;;;;;50.97;22.05;;;8.40;99.90;;;;;;4974793;28;20038;-75
2022/04/18 06:34:21;;;;;;;49.67;19.88;;;8.50;99.90;;;;;;4974205;28;20444;-75
2022/04/18 06:36:47;;;;;;;51.35;21.75;;;8.50;99.90;;;;;;4967746;28;20023;-76
2022/04/18 06:39:13;;;;;;;51.42;24.73;;;8.70;99.90;;;;;;4974160;28;20037;-76
2022/04/18 06:41:39;;;;;;;62.00;23.95;;;8.80;99.90;;;;;;4974337;28;20061;-75
2022/04/18 06:44:05;;;;;;;52.28;22.80;;;8.90;99.90;;;;;;4974571;28;20379;-76
2022/04/18 06:46:30;;;;;;;57.00;24.65;;;9.00;99.90;;;;;;4974221;28;20026;-76
2022/04/18 06:48:57;;;;;;;55.20;24.63;;;9.20;99.90;;;;;;4973931;28;20031;-76
2022/04/18 06:51:22;;;;;;;51.92;22.73;;;9.40;99.90;;;;;;4974445;28;20066;-75
2022/04/18 06:53:48;;;;;;;51.53;23.08;;;9.60;99.90;;;;;;4974523;28;20080;-75
2022/04/18 06:58:58;;;;;;;49.20;20.23;;;10.00;99.90;;;;;;4973993;28;20066;-75
2022/04/18 07:01:24;;;;;;;42.80;20.20;;;10.30;99.90;;;;;;4973645;28;20617;-75
2022/04/18 07:03:50;;;;;;;41.50;19.92;;;10.50;99.90;;;;;;4973789;28;20027;-75
2022/04/18 07:06:16;;;;;;;39.33;18.55;;;10.80;99.90;;;;;;4986640;23;20057;-84
2022/04/18 07:08:41;;;;;;;28.70;12.65;;;11.10;99.90;;;;;;4944205;28;20374;-81
2022/04/18 07:11:07;;;;;;;24.92;10.90;;;11.40;99.90;;;;;;4957821;28;20027;-82
2022/04/18 07:13:33;;;;;;;20.40;7.35;;;11.70;99.90;;;;;;4959309;28;20046;-82
2022/04/18 07:16:00;;;;;;;19.08;8.35;;;11.90;99.90;;;;;;4957818;28;20035;-81
2022/04/18 07:18:26;;;;;;;15.77;8.63;;;12.10;99.90;;;;;;4955283;28;20369;-81
2022/04/18 07:20:51;;;;;;;20.25;9.82;;;12.30;99.90;;;;;;4956217;28;20637;-81
2022/04/18 07:23:17;;;;;;;23.73;10.43;;;12.30;99.90;;;;;;4969808;28;20038;-81
2022/04/18 07:25:43;;;;;;;22.27;9.57;;;12.30;99.90;;;;;;4973376;28;20045;-81
2022/04/18 07:28:08;;;;;;;16.17;9.27;;;12.30;99.90;;;;;;4973060;28;20046;-81
2022/04/18 07:30:34;;;;;;;18.98;9.68;;;12.40;99.90;;;;;;4956424;28;20063;-81
2022/04/18 07:33:00;;;;;;;17.65;8.30;;;12.50;99.90;;;;;;4974017;28;20069;-82
2022/04/18 07:35:26;;;;;;;13.43;7.60;;;12.50;99.90;;;;;;4973259;28;20015;-82
2022/04/18 07:40:36;;;;;;;17.92;7.50;;;12.50;99.90;;;;;;4973042;28;20054;-82
2022/04/18 07:43:02;;;;;;;18.92;8.30;;;12.60;99.90;;;;;;4972949;28;20022;-82
2022/04/18 07:45:27;;;;;;;16.08;7.55;;;12.70;99.90;;;;;;4973358;28;20030;-81
2022/04/18 07:47:53;;;;;;;20.27;9.65;;;12.90;99.90;;;;;;4973287;28;20054;-82
2022/04/18 07:50:19;;;;;;;17.00;8.10;;;12.90;99.90;;;;;;4973073;28;20116;-82
2022/04/18 07:52:45;;;;;;;25.23;9.32;;;13.00;99.90;;;;;;4972852;28;20060;-81
2022/04/18 07:55:11;;;;;;;21.40;8.93;;;13.00;99.90;;;;;;4972889;28;20027;-81
2022/04/18 07:57:37;;;;;;;15.70;7.38;;;13.10;99.90;;;;;;4972957;28;20026;-81
2022/04/18 08:00:06;;;;;;;13.77;6.72;;;13.20;99.40;;;;;;4972720;28;20026;-81
2022/04/18 08:02:34;;;;;;;15.93;6.63;;;13.40;99.00;;;;;;4957543;28;20023;-82
2022/04/18 08:07:35;;;;;;;15.10;7.00;;;13.60;97.50;;;;;;4951229;28;20496;-76
2022/04/18 08:10:01;;;;;;;14.85;7.22;;;13.70;97.10;;;;;;4953609;29;20063;-75
2022/04/18 08:12:27;;;;;;;14.98;7.35;;;13.90;98.00;;;;;;4953222;29;20392;-77
2022/04/18 08:14:52;;;;;;;13.00;5.95;;;14.20;96.90;;;;;;4953895;29;20110;-76
2022/04/18 08:17:18;;;;;;;12.90;6.55;;;14.40;94.80;;;;;;4953036;28;20070;-77
2022/04/18 08:19:43;;;;;;;11.68;6.43;;;14.50;94.00;;;;;;4951887;28;20029;-76
2022/04/18 08:22:10;;;;;;;12.73;6.38;;;14.50;94.10;;;;;;4952982;29;20028;-76
2022/04/18 08:24:35;;;;;;;11.93;6.05;;;14.50;93.00;;;;;;4952986;29;20015;-75
2022/04/18 08:27:01;;;;;;;10.65;6.00;;;14.80;93.10;;;;;;4951284;28;20031;-76
2022/04/18 08:29:27;;;;;;;15.13;6.65;;;14.80;92.20;;;;;;4953558;28;20026;-75
2022/04/18 08:31:53;;;;;;;15.02;6.97;;;15.00;91.90;;;;;;4952108;28;20020;-75
2022/04/18 08:34:19;;;;;;;14.38;6.18;;;15.20;90.40;;;;;;4952858;29;20042;-75
2022/04/18 08:36:44;;;;;;;12.48;6.95;;;15.40;90.00;;;;;;4947395;28;20102;-76
2022/04/18 08:39:11;;;;;;;12.80;6.35;;;15.30;88.20;;;;;;4953258;29;20031;-76
2022/04/18 08:41:44;;;;;;;14.88;7.15;;;15.30;87.60;;;;;;4952662;28;20027;-76
2022/04/18 08:44:11;;;;;;;11.70;6.25;;;15.50;86.10;;;;;;4952975;29;20019;-75
2022/04/18 08:46:37;;;;;;;9.60;5.15;;;15.70;83.60;;;;;;4952921;28;20015;-76
2022/04/18 08:54:33;;;;;;;11.77;4.80;;;16.10;79.50;;;;;;4952356;29;20054;-76
2022/04/18 08:56:59;;;;;;;12.75;5.85;;;16.30;78.00;;;;;;4952023;28;20027;-76
2022/04/18 08:59:24;;;;;;;13.70;6.00;;;16.90;75.30;;;;;;4952708;29;20033;-76
2022/04/18 09:01:52;;;;;;;12.70;6.03;;;17.50;72.30;;;;;;4946438;29;20051;-76
2022/04/18 09:04:21;;;;;;;11.77;6.35;;;17.60;73.00;;;;;;4952374;29;20033;-76
2022/04/18 09:06:47;;;;;;;10.43;4.63;;;17.80;69.70;;;;;;4977035;23;20051;-81
2022/04/18 09:09:14;;;;;;;8.63;4.78;;;18.00;63.40;;;;;;4970658;28;20033;-81
2022/04/18 09:11:43;;;;;;;10.10;5.28;;;17.70;64.20;;;;;;4971740;28;20039;-82
2022/04/18 09:14:13;;;;;;;7.35;4.07;;;17.90;65.80;;;;;;4954378;28;20500;-81
2022/04/18 09:16:41;;;;;;;11.37;4.77;;;18.00;64.50;;;;;;4953985;28;20019;-80
2022/04/18 09:19:16;;;;;;;8.82;4.72;;;18.20;65.00;;;;;;4971087;28;20031;-79
2022/04/18 09:21:57;;;;;;;7.80;4.60;;;18.60;62.20;;;;;;4970907;28;20400;-82
2022/04/18 09:24:34;;;;;;;8.47;4.53;;;19.00;59.60;;;;;;4954256;28;20031;-82
2022/04/18 09:27:29;;;;;;;10.05;4.55;;;19.40;59.80;;;;;;4971490;28;20034;-81
2022/04/18 09:30:21;;;;;;;10.07;4.25;;;19.70;58.70;;;;;;4954006;28;20034;-80
2022/04/18 09:33:06;;;;;;;6.00;3.83;;;20.20;56.60;;;;;;4969519;28;20050;-81
2022/04/18 09:35:32;;;;;;;6.95;3.90;;;20.70;55.70;;;;;;4969653;28;20025;-81
2022/04/18 09:38:08;;;;;;;8.68;4.05;;;21.40;50.70;;;;;;4967900;28;20054;-82
2022/04/18 09:40:36;;;;;;;7.05;3.95;;;21.20;49.90;;;;;;4971425;28;20419;-81
2022/04/18 09:43:03;;;;;;;6.68;3.65;;;21.20;50.80;;;;;;4944228;28;20039;-82
2022/04/18 09:45:28;;;;;;;8.55;3.47;;;21.90;50.50;;;;;;4974190;28;20352;-82
2022/04/18 09:47:56;;;;;;;6.32;2.45;;;22.50;46.70;;;;;;4973716;28;20034;-82
2022/04/18 09:53:24;;;;;;;7.40;3.25;;;23.50;42.30;;;;;;4975666;28;20077;-82
2022/04/18 09:55:54;;;;;;;7.63;3.55;;;23.40;42.10;;;;;;4976030;28;20022;-83
2022/04/18 09:58:21;;;;;;;4.43;3.00;;;24.10;43.30;;;;;;4975494;28;20102;-82
2022/04/18 10:00:48;;;;;;;7.18;3.17;;;24.50;39.50;;;;;;4975600;28;20492;-83
2022/04/18 10:03:14;;;;;;;7.40;3.72;;;23.70;41.80;;;;;;4975515;28;20045;-82
2022/04/18 10:05:40;;;;;;;8.52;3.22;;;23.90;43.30;;;;;;4987834;23;20043;-78
2022/04/18 10:08:06;;;;;;;10.05;2.95;;;23.80;42.80;;;;;;4975051;28;20093;-78
2022/04/18 10:10:36;;;;;;;7.88;2.97;;;24.50;42.90;;;;;;4975192;28;20519;-78
2022/04/18 10:13:06;;;;;;;8.02;3.40;;;25.20;42.40;;;;;;4975406;28;20110;-78
2022/04/18 10:15:33;;;;;;;6.55;2.92;;;25.20;39.50;;;;;;4975009;28;20599;-78
2022/04/18 10:18:03;;;;;;;6.65;2.40;;;24.90;38.60;;;;;;4974877;28;20023;-78
2022/04/18 10:20:59;;;;;;;6.10;2.55;;;24.40;41.40;;;;;;4974573;28;20027;-78
2022/04/18 10:23:36;;;;;;;4.43;2.40;;;24.50;39.80;;;;;;4974638;28;20035;-78
2022/04/18 10:26:22;;;;;;;5.03;2.65;;;25.40;38.10;;;;;;4974595;28;20023;-78
2022/04/18 10:28:51;;;;;;;5.38;2.60;;;26.10;34.10;;;;;;4974359;28;20022;-79
2022/04/18 10:31:43;;;;;;;5.55;2.22;;;25.30;34.20;;;;;;4957623;28;20177;-79
2022/04/18 10:34:12;;;;;;;6.03;2.70;;;26.70;36.40;;;;;;4964880;28;20035;-78
2022/04/18 10:36:46;;;;;;;5.32;2.33;;;27.10;32.70;;;;;;4953716;28;20023;-78
2022/04/18 10:39:12;;;;;;;4.43;1.80;;;27.60;36.20;;;;;;4974559;28;20022;-79
2022/04/18 10:41:45;;;;;;;5.43;2.13;;;28.30;33.90;;;;;;4974177;28;20502;-78
2022/04/18 10:44:17;;;;;;;7.57;1.98;;;28.70;29.60;;;;;;4973930;28;20030;-78
2022/04/18 10:47:03;;;;;;;3.08;1.95;;;28.60;29.90;;;;;;4974831;28;20349;-79
2022/04/18 10:49:31;;;;;;;3.28;2.03;;;29.10;29.40;;;;;;4974468;28;20018;-78
2022/04/18 10:52:05;;;;;;;4.05;1.50;;;28.60;29.50;;;;;;4974262;28;20075;-78
2022/04/18 10:54:31;;;;;;;5.95;1.73;;;28.60;32.10;;;;;;4973653;28;20396;-79
2022/04/18 10:57:05;;;;;;;2.22;1.27;;;29.10;28.80;;;;;;4957061;28;20094;-78
2022/04/18 10:59:35;;;;;;;2.17;0.90;;;28.90;30.00;;;;;;4974429;28;20027;-78
2022/04/18 11:02:05;;;;;;;2.50;0.85;;;28.10;30.60;;;;;;4974688;28;20065;-78
2022/04/18 11:04:38;;;;;;;2.67;0.93;;;28.60;32.60;;;;;;4974006;28;20113;-79
2022/04/18 11:07:06;;;;;;;1.85;1.17;;;29.20;30.10;;;;;;4968679;23;20047;-83
2022/04/18 11:09:37;;;;;;;3.13;1.17;;;29.50;30.80;;;;;;4974246;28;20424;-82
2022/04/18 11:12:08;;;;;;;4.30;1.08;;;27.40;29.50;;;;;;4956976;28;20050;-82
2022/04/18 11:15:03;;;;;;;1.05;0.68;;;27.20;32.70;;;;;;4973698;28;20019;-82
2022/04/18 11:17:31;;;;;;;2.90;0.77;;;26.80;30.50;;;;;;4973991;28;20031;-83
2022/04/18 11:20:17;;;;;;;3.33;0.80;;;26.60;30.50;;;;;;4973787;28;20019;-83
2022/04/18 11:23:15;;;;;;;2.10;1.08;;;26.10;31.60;;;;;;4972898;28;20015;-83
2022/04/18 11:25:55;;;;;;;2.08;0.82;;;25.30;31.80;;;;;;4967651;28;20026;-83
2022/04/18 11:28:22;;;;;;;3.38;1.40;;;25.00;32.80;;;;;;4943534;28;20026;-82
2022/04/18 11:30:47;;;;;;;3.67;1.08;;;24.80;32.70;;;;;;4956344;28;20541;-83
2022/04/18 11:33:13;;;;;;;3.72;1.30;;;25.60;35.90;;;;;;4973568;28;20062;-83
2022/04/18 11:35:40;;;;;;;3.92;1.00;;;26.50;31.70;;;;;;4971887;28;20546;-82
2022/04/18 11:38:10;;;;;;;3.47;1.60;;;26.90;34.90;;;;;;4972243;28;20089;-84
2022/04/18 11:40:38;;;;;;;3.72;1.80;;;27.10;33.70;;;;;;4973621;28;20140;-84
2022/04/18 11:43:17;;;;;;;3.55;1.00;;;26.40;34.50;;;;;;4956448;28;20062;-83
2022/04/18 11:45:43;;;;;;;3.20;1.00;;;26.40;33.60;;;;;;4956115;28;20027;-83
2022/04/18 11:48:13;;;;;;;3.15;1.20;;;26.70;30.50;;;;;;4973161;28;20583;-84
2022/04/18 11:50:43;;;;;;;3.30;1.30;;;26.30;30.70;;;;;;4955473;28;20023;-83
2022/04/18 11:53:10;;;;;;;5.68;1.67;;;26.00;32.20;;;;;;4956156;28;20030;-84
2022/04/18 11:55:48;;;;;;;6.78;1.98;;;26.40;33.00;;;;;;4973491;28;20026;-82
2022/04/18 11:58:19;;;;;;;3.92;1.50;;;26.70;33.60;;;;;;4973027;28;20030;-84
2022/04/18 12:09:11;;;;;;;6.07;2.40;;;26.90;33.50;;;;;;4973084;28;20463;-79
2022/04/18 12:11:38;;;;;;;7.85;3.00;;;26.50;38.50;;;;;;4955584;28;20911;-78
2022/04/18 12:14:04;;;;;;;4.32;1.92;;;26.30;36.60;;;;;;4955504;28;20031;-78
2022/04/18 12:16:34;;;;;;;5.47;2.40;;;26.80;37.80;;;;;;4973166;28;20097;-79
2022/04/18 12:19:00;;;;;;;5.32;1.83;;;26.40;35.60;;;;;;4972054;28;20026;-78
2022/04/18 12:21:26;;;;;;;5.05;2.33;;;26.30;34.10;;;;;;4971443;28;20019;-78
2022/04/18 12:23:56;;;;;;;5.28;2.15;;;26.00;34.30;;;;;;4972540;28;20031;-78
2022/04/18 12:26:26;;;;;;;5.07;2.00;;;26.40;35.60;;;;;;4972738;28;20023;-78
2022/04/18 12:28:59;;;;;;;5.20;1.65;;;26.60;33.70;;;;;;4972245;28;20061;-77
2022/04/18 12:31:24;;;;;;;6.15;2.13;;;26.10;34.70;;;;;;4972516;28;20027;-78
2022/04/18 12:33:50;;;;;;;5.57;2.17;;;26.10;35.60;;;;;;4972875;28;20101;-78
2022/04/18 12:36:36;;;;;;;4.95;2.67;;;25.60;38.00;;;;;;4969387;28;20066;-78
2022/04/18 12:39:03;;;;;;;8.50;2.75;;;24.90;38.20;;;;;;4972181;28;20480;-78
2022/04/18 12:41:39;;;;;;;5.55;2.40;;;24.90;39.40;;;;;;4955124;28;20081;-78
2022/04/18 12:44:13;;;;;;;5.47;2.78;;;25.20;41.50;;;;;;4972071;28;20107;-77
2022/04/18 12:46:39;;;;;;;7.90;2.85;;;25.60;39.30;;;;;;4972506;28;20023;-77
2022/04/18 12:49:10;;;;;;;6.88;2.60;;;24.90;39.40;;;;;;4972097;28;20026;-77
2022/04/18 12:51:39;;;;;;;6.70;2.60;;;24.20;42.80;;;;;;4971566;28;20125;-78
2022/04/18 12:54:06;;;;;;;10.30;3.08;;;24.30;41.40;;;;;;4971867;28;20035;-77
2022/04/18 12:56:33;;;;;;;7.15;2.70;;;24.20;41.90;;;;;;4972456;28;20479;-78
2022/04/18 12:59:06;;;;;;;7.05;2.72;;;24.20;40.80;;;;;;4954809;28;20385;-78
2022/04/18 13:01:39;;;;;;;7.25;2.75;;;24.60;41.80;;;;;;4971750;28;20031;-77
2022/04/18 13:04:21;;;;;;;7.05;2.72;;;24.50;40.60;;;;;;4971772;28;20041;-78
2022/04/18 13:07:10;;;;;;;5.80;2.22;;;24.60;40.50;;;;;;4985416;23;20125;-82
2022/04/18 13:09:37;;;;;;;5.20;2.22;;;24.50;44.10;;;;;;4971261;28;20479;-85
2022/04/18 13:12:07;;;;;;;6.88;2.50;;;24.50;41.60;;;;;;4971127;28;20050;-82
2022/04/18 13:14:36;;;;;;;6.25;2.92;;;23.60;41.40;;;;;;4971926;28;20436;-82
2022/04/18 13:17:09;;;;;;;7.43;2.13;;;23.40;40.50;;;;;;4954202;28;20054;-82
2022/04/18 13:19:36;;;;;;;8.63;2.40;;;22.60;44.30;;;;;;4954175;28;20383;-82
2022/04/18 13:22:02;;;;;;;6.00;2.33;;;23.50;46.00;;;;;;4970872;28;20121;-83